首页
METAR-TAF:

METAR-TAF

机场 :

德明, 新墨西哥州, 美国

纬度: 32-15-44N, 经度: 107-43-14W, 海拔: 1315米

当前天气观测

该预报发布于31分钟前的10:53 UTC
风速9节,风向南转西南
温度 24°C
湿度 50%
气压 1017 hPa
能見度: 16.1公里
天空无云

METAR: KDMN 251053Z AUTO 21009KT 10SM CLR 24/13 A3004 RMK AO2 SLP077 T02390128

时间: 05:24 (11:24 UTC)

预报

该预报发布于5小时和51分钟前的05:33 UTC
预报有效从25日的 06点(UTC)到 26日的 06点(UTC)
风速6节,风向东北
能見度: 10公里
散云层高于15000英尺
多云层高于25000英尺
从 25日的 0900点(UTC)
风速5节,风向西转西南
能見度: 10公里
少量云层高于25000英尺
从 25日的 1700点(UTC)
风速8节,风向西
能見度: 10公里
散云层高于11000英尺

TAF: KDMN 250533Z 2506/2606 05006KT P6SM SCT150 BKN250 FM250900 25005KT P6SM FEW250 FM251700 27008KT P6SM SCT110

超过4000个机场的气象观测和天气预报(METAR&TAF报告)。

可查询的气象台以黄色和红色小点在地图上表示。

将鼠标移到小点上方,可查看气象台名称。

然后点击查看天气观测和预报。

如需切换地图:点击带黑十字的绿色按钮放大地图;点击带横线的绿色按钮缩小地图;或者点击绿色箭头查看邻近地区的地图。


METAR-TAF: